KBLU/BLU METAR and TAF weather

Enter ICAO airport designator
Station Type Date Time Source
KBLU METAR 2022/01/25 04:52 UTC NOAA

KBLU 250452Z AUTO VRB06KT 10SM CLR 10/M13 A3012 RMK AO2 SLP165 T01001133


Station Type Date Time Source
KBLU Decoded METAR 2022/01/25 04:52 UTC NOAA

BLUE CANYON AIRPORT, CA, United States (KBLU) 39-17N 120-42W 1609M
Jan 24, 2022 - 11:52 PM EST / 2022.01.25 0452 UTC
Wind: Variable at 7 MPH (6 KT):0
Visibility: 10 mile(s):0
Sky conditions: clear
Temperature: 50.0 F (10.0 C)
Dew Point: 8.1 F (-13.3 C)
Relative Humidity: 17%
Pressure (altimeter): 30.12 in. Hg (1019 hPa)
ob: KBLU 250452Z AUTO VRB06KT 10SM CLR 10/M13 A3012 RMK AO2 SLP165 T01001133
cycle: 5

Station Type Date Time Source
KBLU TAF UTC NOAA

Error!

Example: see airport list